Terminal Aerodrome Forecast
Issued by NWS North Platte, NE

Home | Current Version | Previous Version | Text Only | Print | Product List | Glossary On
Versions: 1 2 3 4 5 6 7 8 9 10 11 12 13
000
FTUS43 KLBF 032300
TAFVTN
TAF
KVTN 032320Z 0400/0424 34014KT P6SM OVC100
     FM040300 30010KT P6SM BKN250
     FM041500 32012G20KT P6SM SCT250=

USA.gov is the U.S. government's official web portal to all federal, state and local government web resources and services.